sensor_id;sensor_type;location;lat;lon;timestamp;pressure;altitude;pressure_sealevel;temperature;humidity
8280;BME280;8335;42.646;23.380;2023-10-08T00:00:24;144682.28;;;12.56;56.48
8280;BME280;8335;42.646;23.380;2023-10-08T00:03:10;144673.59;;;12.52;56.70
8280;BME280;8335;42.646;23.380;2023-10-08T00:05:37;144666.09;;;12.49;57.28
8280;BME280;8335;42.646;23.380;2023-10-08T00:08:05;144653.69;;;12.44;57.45
8280;BME280;8335;42.646;23.380;2023-10-08T00:10:34;144642.47;;;12.39;56.92
8280;BME280;8335;42.646;23.380;2023-10-08T00:13:03;144625.03;;;12.32;57.39
8280;BME280;8335;42.646;23.380;2023-10-08T00:15:33;144631.25;;;12.35;57.12
8280;BME280;8335;42.646;23.380;2023-10-08T00:18:02;144628.75;;;12.34;56.85
8280;BME280;8335;42.646;23.380;2023-10-08T00:20:32;144617.59;;;12.29;57.38
8280;BME280;8335;42.646;23.380;2023-10-08T00:23:20;144592.66;;;12.19;56.84
8280;BME280;8335;42.646;23.380;2023-10-08T00:25:47;144611.34;;;12.27;57.19
8280;BME280;8335;42.646;23.380;2023-10-08T00:28:15;144546.66;;;12.00;57.38
8280;BME280;8335;42.646;23.380;2023-10-08T00:30:42;144598.91;;;12.22;56.51
8280;BME280;8335;42.646;23.380;2023-10-08T00:33:10;144595.16;;;12.20;56.52
8280;BME280;8335;42.646;23.380;2023-10-08T00:35:39;144600.16;;;12.22;56.95
8280;BME280;8335;42.646;23.380;2023-10-08T00:38:07;144562.78;;;12.07;57.96
8280;BME280;8335;42.646;23.380;2023-10-08T00:40:40;144544.13;;;11.99;58.78
8280;BME280;8335;42.646;23.380;2023-10-08T00:43:11;144530.47;;;11.94;58.37
8280;BME280;8335;42.646;23.380;2023-10-08T00:45:38;144525.44;;;11.92;57.73
8280;BME280;8335;42.646;23.380;2023-10-08T00:48:09;144531.69;;;11.94;57.56
8280;BME280;8335;42.646;23.380;2023-10-08T00:50:36;144522.97;;;11.91;57.75
8280;BME280;8335;42.646;23.380;2023-10-08T00:53:10;144469.41;;;11.69;57.72
8280;BME280;8335;42.646;23.380;2023-10-08T00:55:43;144511.81;;;11.86;57.46
8280;BME280;8335;42.646;23.380;2023-10-08T00:58:19;144508.03;;;11.84;57.77
8280;BME280;8335;42.646;23.380;2023-10-08T01:00:50;144504.31;;;11.83;57.58
8280;BME280;8335;42.646;23.380;2023-10-08T01:03:25;144498.09;;;11.80;57.43
8280;BME280;8335;42.646;23.380;2023-10-08T01:05:53;144508.03;;;11.84;57.85
8280;BME280;8335;42.646;23.380;2023-10-08T01:08:22;144471.91;;;11.70;57.64
8280;BME280;8335;42.646;23.380;2023-10-08T01:11:18;144504.31;;;11.83;57.34
8280;BME280;8335;42.646;23.380;2023-10-08T01:13:47;144498.09;;;11.80;57.51
8280;BME280;8335;42.646;23.380;2023-10-08T01:16:14;144480.63;;;11.73;58.30
8280;BME280;8335;42.646;23.380;2023-10-08T01:18:42;144471.91;;;11.70;57.72
8280;BME280;8335;42.646;23.380;2023-10-08T01:21:17;144464.44;;;11.67;58.84
8280;BME280;8335;42.646;23.380;2023-10-08T01:24:00;144452.00;;;11.62;59.15
8280;BME280;8335;42.646;23.380;2023-10-08T01:26:29;144439.53;;;11.56;59.29
8280;BME280;8335;42.646;23.380;2023-10-08T01:28:57;144420.88;;;11.49;59.61
8280;BME280;8335;42.646;23.380;2023-10-08T01:31:28;144430.88;;;11.53;58.04
8280;BME280;8335;42.646;23.380;2023-10-08T01:33:55;144429.63;;;11.52;57.93
8280;BME280;8335;42.646;23.380;2023-10-08T01:36:23;144420.88;;;11.49;58.30
8280;BME280;8335;42.646;23.380;2023-10-08T01:38:51;144422.13;;;11.49;58.86
8280;BME280;8335;42.646;23.380;2023-10-08T01:41:21;144414.69;;;11.46;59.50
8280;BME280;8335;42.646;23.380;2023-10-08T01:43:55;144404.72;;;11.42;60.04
8280;BME280;8335;42.646;23.380;2023-10-08T01:46:24;144398.50;;;11.40;60.37
8280;BME280;8335;42.646;23.380;2023-10-08T01:48:52;144402.22;;;11.41;61.14
8280;BME280;8335;42.646;23.380;2023-10-08T01:51:29;144402.22;;;11.41;61.13
8280;BME280;8335;42.646;23.380;2023-10-08T01:54:03;144389.81;;;11.36;60.69
8280;BME280;8335;42.646;23.380;2023-10-08T01:56:39;144387.28;;;11.35;60.80
8280;BME280;8335;42.646;23.380;2023-10-08T01:59:08;144374.88;;;11.30;60.74
8280;BME280;8335;42.646;23.380;2023-10-08T02:01:35;144374.88;;;11.30;60.58
8280;BME280;8335;42.646;23.380;2023-10-08T02:04:04;144356.25;;;11.22;60.65
8280;BME280;8335;42.646;23.380;2023-10-08T02:06:32;144355.00;;;11.22;60.58
8280;BME280;8335;42.646;23.380;2023-10-08T02:09:00;144348.75;;;11.19;60.57
8280;BME280;8335;42.646;23.380;2023-10-08T02:11:31;144353.72;;;11.21;60.56
8280;BME280;8335;42.646;23.380;2023-10-08T02:14:10;144374.88;;;11.30;60.67
8280;BME280;8335;42.646;23.380;2023-10-08T02:16:40;144366.16;;;11.26;60.69
8280;BME280;8335;42.646;23.380;2023-10-08T02:19:08;144366.16;;;11.26;60.73
8280;BME280;8335;42.646;23.380;2023-10-08T02:21:36;144366.16;;;11.26;60.89
8280;BME280;8335;42.646;23.380;2023-10-08T02:24:05;144381.09;;;11.33;61.17
8280;BME280;8335;42.646;23.380;2023-10-08T02:26:32;144376.13;;;11.30;61.71
8280;BME280;8335;42.646;23.380;2023-10-08T02:28:59;144377.38;;;11.31;61.97
8280;BME280;8335;42.646;23.380;2023-10-08T02:31:28;144368.63;;;11.27;62.30
8280;BME280;8335;42.646;23.380;2023-10-08T02:33:54;144372.41;;;11.29;62.27
8280;BME280;8335;42.646;23.380;2023-10-08T02:36:24;144377.38;;;11.31;62.50
8280;BME280;8335;42.646;23.380;2023-10-08T02:38:51;144366.16;;;11.26;62.85
8280;BME280;8335;42.646;23.380;2023-10-08T02:41:18;144361.19;;;11.24;62.61
8280;BME280;8335;42.646;23.380;2023-10-08T02:43:44;144350.00;;;11.20;63.04
8280;BME280;8335;42.646;23.380;2023-10-08T02:46:14;144341.31;;;11.16;63.14
8280;BME280;8335;42.646;23.380;2023-10-08T02:48:42;144327.63;;;11.11;63.46
8280;BME280;8335;42.646;23.380;2023-10-08T02:51:09;144333.81;;;11.13;63.30
8280;BME280;8335;42.646;23.380;2023-10-08T02:53:40;144332.56;;;11.13;62.96
8280;BME280;8335;42.646;23.380;2023-10-08T02:56:09;144264.19;;;10.85;63.31
8280;BME280;8335;42.646;23.380;2023-10-08T02:58:39;144336.28;;;11.14;62.68
8280;BME280;8335;42.646;23.380;2023-10-08T03:01:07;144327.63;;;11.11;62.89
8280;BME280;8335;42.646;23.380;2023-10-08T03:03:39;144328.84;;;11.11;62.50
8280;BME280;8335;42.646;23.380;2023-10-08T03:06:07;144326.38;;;11.10;62.40
8280;BME280;8335;42.646;23.380;2023-10-08T03:08:37;144330.09;;;11.12;62.93
8280;BME280;8335;42.646;23.380;2023-10-08T03:11:08;144341.31;;;11.16;62.34
8280;BME280;8335;42.646;23.380;2023-10-08T03:13:43;144338.81;;;11.15;61.83
8280;BME280;8335;42.646;23.380;2023-10-08T03:16:12;144292.78;;;10.96;62.05
8280;BME280;8335;42.646;23.380;2023-10-08T03:18:40;144277.88;;;10.90;61.76
8280;BME280;8335;42.646;23.380;2023-10-08T03:21:11;144325.13;;;11.10;61.46
8280;BME280;8335;42.646;23.380;2023-10-08T03:23:48;144328.84;;;11.11;61.56
8280;BME280;8335;42.646;23.380;2023-10-08T03:26:16;144332.56;;;11.13;61.70
8280;BME280;8335;42.646;23.380;2023-10-08T03:29:01;144337.59;;;11.15;61.83
8280;BME280;8335;42.646;23.380;2023-10-08T03:31:33;144332.56;;;11.13;61.83
8280;BME280;8335;42.646;23.380;2023-10-08T03:34:16;144291.56;;;10.96;61.93
8280;BME280;8335;42.646;23.380;2023-10-08T03:36:47;144330.09;;;11.12;62.54
8280;BME280;8335;42.646;23.380;2023-10-08T03:39:15;144331.34;;;11.12;62.95
8280;BME280;8335;42.646;23.380;2023-10-08T03:41:44;144323.91;;;11.09;63.27
8280;BME280;8335;42.646;23.380;2023-10-08T03:44:23;144310.19;;;11.03;63.28
8280;BME280;8335;42.646;23.380;2023-10-08T03:46:51;144297.75;;;10.98;63.72
8280;BME280;8335;42.646;23.380;2023-10-08T03:49:18;144267.94;;;10.86;63.19
8280;BME280;8335;42.646;23.380;2023-10-08T03:51:54;144250.53;;;10.79;64.12
8280;BME280;8335;42.646;23.380;2023-10-08T03:54:23;144245.53;;;10.77;64.43
8280;BME280;8335;42.646;23.380;2023-10-08T03:56:55;144243.06;;;10.76;64.60
8280;BME280;8335;42.646;23.380;2023-10-08T03:59:23;144239.34;;;10.74;65.56
8280;BME280;8335;42.646;23.380;2023-10-08T04:01:57;144239.34;;;10.74;64.72
8280;BME280;8335;42.646;23.380;2023-10-08T04:04:26;144253.03;;;10.80;64.73
8280;BME280;8335;42.646;23.380;2023-10-08T04:07:16;144260.47;;;10.83;64.84
8280;BME280;8335;42.646;23.380;2023-10-08T04:09:54;144260.47;;;10.83;65.13
8280;BME280;8335;42.646;23.380;2023-10-08T04:12:35;144265.41;;;10.85;65.02
8280;BME280;8335;42.646;23.380;2023-10-08T04:15:08;144254.25;;;10.81;65.46
8280;BME280;8335;42.646;23.380;2023-10-08T04:17:35;144251.78;;;10.80;65.68
8280;BME280;8335;42.646;23.380;2023-10-08T04:20:10;144246.78;;;10.78;65.68
8280;BME280;8335;42.646;23.380;2023-10-08T04:23:00;144204.53;;;10.60;66.79
8280;BME280;8335;42.646;23.380;2023-10-08T04:25:27;144162.28;;;10.43;67.07
8280;BME280;8335;42.646;23.380;2023-10-08T04:27:54;144163.53;;;10.43;66.81
8280;BME280;8335;42.646;23.380;2023-10-08T04:30:24;144163.53;;;10.43;66.38
8280;BME280;8335;42.646;23.380;2023-10-08T04:32:58;144175.91;;;10.48;66.17
8280;BME280;8335;42.646;23.380;2023-10-08T04:35:32;144185.88;;;10.53;65.97
8280;BME280;8335;42.646;23.380;2023-10-08T04:38:04;144207.00;;;10.61;65.85
8280;BME280;8335;42.646;23.380;2023-10-08T04:40:34;144215.72;;;10.65;66.11
8280;BME280;8335;42.646;23.380;2023-10-08T04:43:07;144226.88;;;10.69;66.39
8280;BME280;8335;42.646;23.380;2023-10-08T04:45:36;144231.84;;;10.71;66.58
8280;BME280;8335;42.646;23.380;2023-10-08T04:48:04;144235.63;;;10.73;66.67
8280;BME280;8335;42.646;23.380;2023-10-08T04:50:34;144235.63;;;10.73;66.94
8280;BME280;8335;42.646;23.380;2023-10-08T04:53:04;144238.09;;;10.74;67.25
8280;BME280;8335;42.646;23.380;2023-10-08T04:55:34;144241.81;;;10.75;67.31
8280;BME280;8335;42.646;23.380;2023-10-08T04:58:00;144257.97;;;10.82;67.11
8280;BME280;8335;42.646;23.380;2023-10-08T05:00:37;144267.94;;;10.86;67.49
8280;BME280;8335;42.646;23.380;2023-10-08T05:03:18;144284.06;;;10.93;67.91
8280;BME280;8335;42.646;23.380;2023-10-08T05:05:47;144297.75;;;10.98;67.75
8280;BME280;8335;42.646;23.380;2023-10-08T05:08:34;144308.97;;;11.03;67.67
8280;BME280;8335;42.646;23.380;2023-10-08T05:11:13;144328.84;;;11.11;67.16
8280;BME280;8335;42.646;23.380;2023-10-08T05:13:50;144336.28;;;11.14;67.43
8280;BME280;8335;42.646;23.380;2023-10-08T05:16:31;144348.75;;;11.19;67.11
8280;BME280;8335;42.646;23.380;2023-10-08T05:19:12;144366.16;;;11.26;67.21
8280;BME280;8335;42.646;23.380;2023-10-08T05:22:03;144388.53;;;11.36;66.95
8280;BME280;8335;42.646;23.380;2023-10-08T05:24:45;144412.19;;;11.45;66.47
8280;BME280;8335;42.646;23.380;2023-10-08T05:27:32;144429.63;;;11.52;66.45
8280;BME280;8335;42.646;23.380;2023-10-08T05:30:23;144439.53;;;11.56;66.02
8280;BME280;8335;42.646;23.380;2023-10-08T05:33:04;144455.72;;;11.63;66.32
8280;BME280;8335;42.646;23.380;2023-10-08T05:35:39;144490.56;;;11.77;66.41
8280;BME280;8335;42.646;23.380;2023-10-08T05:38:16;144511.81;;;11.86;65.66
8280;BME280;8335;42.646;23.380;2023-10-08T05:40:50;144524.22;;;11.91;65.29
8280;BME280;8335;42.646;23.380;2023-10-08T05:43:49;144561.53;;;12.06;65.32
8280;BME280;8335;42.646;23.380;2023-10-08T05:46:39;144704.75;;;12.65;64.79
8280;BME280;8335;42.646;23.380;2023-10-08T05:49:14;145021.22;;;13.94;60.60
8280;BME280;8335;42.646;23.380;2023-10-08T05:52:08;145477.84;;;15.81;54.41
8280;BME280;8335;42.646;23.380;2023-10-08T05:54:50;145906.28;;;17.55;48.62
8280;BME280;8335;42.646;23.380;2023-10-08T05:57:35;146321.63;;;19.24;43.16
8280;BME280;8335;42.646;23.380;2023-10-08T06:00:06;146648.50;;;20.57;40.29
8280;BME280;8335;42.646;23.380;2023-10-08T06:02:51;146980.63;;;21.92;37.15
8280;BME280;8335;42.646;23.380;2023-10-08T06:05:35;147324.44;;;23.32;34.44
8280;BME280;8335;42.646;23.380;2023-10-08T06:08:09;147627.13;;;24.55;32.43
8280;BME280;8335;42.646;23.380;2023-10-08T06:10:40;147898.59;;;25.65;30.44
8280;BME280;8335;42.646;23.380;2023-10-08T06:13:18;148137.56;;;26.61;28.83
8280;BME280;8335;42.646;23.380;2023-10-08T06:15:56;148356.50;;;27.50;27.72
8280;BME280;8335;42.646;23.380;2023-10-08T06:18:33;148560.56;;;28.33;26.70
8280;BME280;8335;42.646;23.380;2023-10-08T06:21:01;148733.16;;;29.02;25.42
8280;BME280;8335;42.646;23.380;2023-10-08T06:23:34;148903.28;;;29.71;24.86
8280;BME280;8335;42.646;23.380;2023-10-08T06:26:02;149050.81;;;30.31;23.77
8280;BME280;8335;42.646;23.380;2023-10-08T06:28:43;149155.53;;;30.73;23.59
8280;BME280;8335;42.646;23.380;2023-10-08T06:31:10;149231.19;;;31.04;23.15
8280;BME280;8335;42.646;23.380;2023-10-08T06:33:42;149293.00;;;31.29;22.19
8280;BME280;8335;42.646;23.380;2023-10-08T06:36:10;149209.75;;;30.95;22.25
8280;BME280;8335;42.646;23.380;2023-10-08T06:38:42;149295.56;;;31.30;22.41
8280;BME280;8335;42.646;23.380;2023-10-08T06:41:11;149319.53;;;31.39;22.18
8280;BME280;8335;42.646;23.380;2023-10-08T06:43:45;149286.72;;;31.26;21.89
8280;BME280;8335;42.646;23.380;2023-10-08T06:46:15;149180.72;;;30.83;23.08
8280;BME280;8335;42.646;23.380;2023-10-08T06:48:45;149199.63;;;30.91;22.58
8280;BME280;8335;42.646;23.380;2023-10-08T06:51:12;149228.66;;;31.03;22.68
8280;BME280;8335;42.646;23.380;2023-10-08T06:53:39;149295.56;;;31.30;22.08
8280;BME280;8335;42.646;23.380;2023-10-08T06:56:06;149334.66;;;31.45;21.66
8280;BME280;8335;42.646;23.380;2023-10-08T06:58:36;149377.53;;;31.63;22.46
8280;BME280;8335;42.646;23.380;2023-10-08T08:08:29;149193.34;;;30.88;23.17
8280;BME280;8335;42.646;23.380;2023-10-08T08:10:56;149207.22;;;30.94;21.91
8280;BME280;8335;42.646;23.380;2023-10-08T08:13:29;149290.50;;;31.28;21.98
8280;BME280;8335;42.646;23.380;2023-10-08T08:15:56;149318.25;;;31.39;21.70
8280;BME280;8335;42.646;23.380;2023-10-08T08:18:26;149233.69;;;31.05;22.12
8280;BME280;8335;42.646;23.380;2023-10-08T08:20:59;149198.38;;;30.90;22.81
8280;BME280;8335;42.646;23.380;2023-10-08T08:23:29;149272.78;;;31.20;23.04
8280;BME280;8335;42.646;23.380;2023-10-08T08:25:58;149361.13;;;31.56;22.82
8280;BME280;8335;42.646;23.380;2023-10-08T08:28:38;149464.66;;;31.98;22.32
8280;BME280;8335;42.646;23.380;2023-10-08T08:31:06;149510.13;;;32.16;21.30
8280;BME280;8335;42.646;23.380;2023-10-08T08:33:41;149558.09;;;32.36;21.20
8280;BME280;8335;42.646;23.380;2023-10-08T08:36:27;149635.13;;;32.67;20.69
8280;BME280;8335;42.646;23.380;2023-10-08T08:38:55;149674.25;;;32.82;20.42
8280;BME280;8335;42.646;23.380;2023-10-08T08:41:22;149549.28;;;32.32;19.96
8280;BME280;8335;42.646;23.380;2023-10-08T08:43:50;149544.19;;;32.30;19.78
8280;BME280;8335;42.646;23.380;2023-10-08T08:46:28;149561.91;;;32.37;20.82
8280;BME280;8335;42.646;23.380;2023-10-08T08:49:00;149496.22;;;32.11;20.52
8280;BME280;8335;42.646;23.380;2023-10-08T08:51:29;149362.38;;;31.57;20.42
8280;BME280;8335;42.646;23.380;2023-10-08T08:53:58;149387.66;;;31.67;19.81
8280;BME280;8335;42.646;23.380;2023-10-08T08:56:26;149440.69;;;31.88;20.00
8280;BME280;8335;42.646;23.380;2023-10-08T08:58:57;149398.97;;;31.71;19.25
8280;BME280;8335;42.646;23.380;2023-10-08T09:01:25;149320.78;;;31.40;19.53
8280;BME280;8335;42.646;23.380;2023-10-08T09:03:52;149305.63;;;31.34;20.01
8280;BME280;8335;42.646;23.380;2023-10-08T09:06:26;149293.00;;;31.29;20.20
8280;BME280;8335;42.646;23.380;2023-10-08T09:08:53;149310.66;;;31.36;20.58
8280;BME280;8335;42.646;23.380;2023-10-08T09:11:22;149313.22;;;31.37;20.28
8280;BME280;8335;42.646;23.380;2023-10-08T09:13:52;149130.22;;;30.63;20.67
8280;BME280;8335;42.646;23.380;2023-10-08T09:16:19;148975.09;;;30.00;21.00
8280;BME280;8335;42.646;23.380;2023-10-08T09:18:47;148926.00;;;29.80;21.88
8280;BME280;8335;42.646;23.380;2023-10-08T09:21:15;148774.72;;;29.19;22.15
8280;BME280;8335;42.646;23.380;2023-10-08T09:23:46;148699.09;;;28.89;22.13
8280;BME280;8335;42.646;23.380;2023-10-08T09:26:17;148569.41;;;28.36;22.46
8280;BME280;8335;42.646;23.380;2023-10-08T09:28:47;148544.13;;;28.26;23.01
8280;BME280;8335;42.646;23.380;2023-10-08T09:31:15;148626.06;;;28.59;23.09
8280;BME280;8335;42.646;23.380;2023-10-08T09:33:43;148753.31;;;29.11;22.57
8280;BME280;8335;42.646;23.380;2023-10-08T09:36:10;148839.00;;;29.45;21.88
8280;BME280;8335;42.646;23.380;2023-10-08T09:38:45;148867.97;;;29.57;21.76
8280;BME280;8335;42.646;23.380;2023-10-08T09:41:14;148836.47;;;29.44;22.14
8280;BME280;8335;42.646;23.380;2023-10-08T09:43:44;148891.97;;;29.67;21.93
8280;BME280;8335;42.646;23.380;2023-10-08T09:46:16;148991.50;;;30.07;21.43
8280;BME280;8335;42.646;23.380;2023-10-08T09:48:51;148987.72;;;30.05;21.47
8280;BME280;8335;42.646;23.380;2023-10-08T09:51:19;148982.69;;;30.03;21.50
8280;BME280;8335;42.646;23.380;2023-10-08T09:53:52;149036.94;;;30.25;21.38
8280;BME280;8335;42.646;23.380;2023-10-08T09:56:28;149049.56;;;30.30;21.05
8280;BME280;8335;42.646;23.380;2023-10-08T09:58:55;149029.41;;;30.22;21.10
8280;BME280;8335;42.646;23.380;2023-10-08T10:01:24;149053.34;;;30.32;20.99
8280;BME280;8335;42.646;23.380;2023-10-08T10:03:52;149021.81;;;30.19;21.56
8280;BME280;8335;42.646;23.380;2023-10-08T10:06:19;149019.28;;;30.18;21.47
8280;BME280;8335;42.646;23.380;2023-10-08T10:08:47;149071.00;;;30.39;21.38
8280;BME280;8335;42.646;23.380;2023-10-08T10:11:15;149168.09;;;30.78;20.87
8280;BME280;8335;42.646;23.380;2023-10-08T10:13:43;149123.94;;;30.60;21.10
8280;BME280;8335;42.646;23.380;2023-10-08T10:16:16;149031.91;;;30.23;20.92
8280;BME280;8335;42.646;23.380;2023-10-08T10:18:45;148970.06;;;29.98;21.72
8280;BME280;8335;42.646;23.380;2023-10-08T10:21:28;148914.63;;;29.76;21.85
8280;BME280;8335;42.646;23.380;2023-10-08T10:23:56;148831.41;;;29.42;21.91
8280;BME280;8335;42.646;23.380;2023-10-08T10:26:25;148839.00;;;29.45;22.12
8280;BME280;8335;42.646;23.380;2023-10-08T10:31:58;148740.69;;;29.05;22.12
8280;BME280;8335;42.646;23.380;2023-10-08T10:34:27;148689.00;;;28.85;23.06
8280;BME280;8335;42.646;23.380;2023-10-08T10:36:56;148682.72;;;28.82;23.51
8280;BME280;8335;42.646;23.380;2023-10-08T10:39:28;148715.53;;;28.95;23.28
8280;BME280;8335;42.646;23.380;2023-10-08T10:41:58;148760.84;;;29.14;23.23
8280;BME280;8335;42.646;23.380;2023-10-08T10:44:28;148775.97;;;29.20;23.22
8280;BME280;8335;42.646;23.380;2023-10-08T10:46:56;148758.31;;;29.13;23.07
8280;BME280;8335;42.646;23.380;2023-10-08T10:49:43;148822.59;;;29.39;22.96
8280;BME280;8335;42.646;23.380;2023-10-08T10:52:19;148777.22;;;29.20;23.18
8280;BME280;8335;42.646;23.380;2023-10-08T10:54:58;148775.97;;;29.20;23.79
8280;BME280;8335;42.646;23.380;2023-10-08T10:57:44;148753.31;;;29.11;23.98
8280;BME280;8335;42.646;23.380;2023-10-08T11:00:19;148768.44;;;29.17;24.06
8280;BME280;8335;42.646;23.380;2023-10-08T11:03:13;148678.94;;;28.81;24.89
8280;BME280;8335;42.646;23.380;2023-10-08T11:05:53;148574.41;;;28.38;24.78
8280;BME280;8335;42.646;23.380;2023-10-08T11:08:25;148529.03;;;28.20;24.87
8280;BME280;8335;42.646;23.380;2023-10-08T11:10:59;148524.00;;;28.18;25.11
8280;BME280;8335;42.646;23.380;2023-10-08T11:13:32;148444.66;;;27.86;25.57
8280;BME280;8335;42.646;23.380;2023-10-08T11:16:04;148409.41;;;27.72;25.71
8280;BME280;8335;42.646;23.380;2023-10-08T11:18:32;148298.63;;;27.27;26.17
8280;BME280;8335;42.646;23.380;2023-10-08T11:21:08;148345.22;;;27.46;26.28
8280;BME280;8335;42.646;23.380;2023-10-08T11:23:44;148313.75;;;27.33;26.50
8280;BME280;8335;42.646;23.380;2023-10-08T11:26:18;148312.50;;;27.32;26.35
8280;BME280;8335;42.646;23.380;2023-10-08T11:28:45;148342.72;;;27.45;26.52
8280;BME280;8335;42.646;23.380;2023-10-08T11:31:14;148309.97;;;27.31;26.95
8280;BME280;8335;42.646;23.380;2023-10-08T11:33:45;148287.34;;;27.22;27.14
8280;BME280;8335;42.646;23.380;2023-10-08T11:36:21;148332.63;;;27.40;26.83
8280;BME280;8335;42.646;23.380;2023-10-08T11:38:53;148318.75;;;27.35;26.79
8280;BME280;8335;42.646;23.380;2023-10-08T11:41:26;148325.09;;;27.37;27.17
8280;BME280;8335;42.646;23.380;2023-10-08T11:43:56;148307.47;;;27.30;27.42
8280;BME280;8335;42.646;23.380;2023-10-08T11:46:24;148283.53;;;27.21;27.54
8280;BME280;8335;42.646;23.380;2023-10-08T11:48:53;148296.13;;;27.26;28.06
8280;BME280;8335;42.646;23.380;2023-10-08T11:51:24;148325.09;;;27.37;27.52
8280;BME280;8335;42.646;23.380;2023-10-08T11:53:53;148298.63;;;27.27;28.06
8280;BME280;8335;42.646;23.380;2023-10-08T11:56:19;148254.63;;;27.09;28.41
8280;BME280;8335;42.646;23.380;2023-10-08T11:58:49;148240.72;;;27.03;27.73
8280;BME280;8335;42.646;23.380;2023-10-08T12:01:17;148221.84;;;26.96;28.00
8280;BME280;8335;42.646;23.380;2023-10-08T12:03:44;148162.69;;;26.72;28.12
8280;BME280;8335;42.646;23.380;2023-10-08T12:06:11;148106.13;;;26.49;28.96
8280;BME280;8335;42.646;23.380;2023-10-08T12:08:42;148080.94;;;26.39;29.42
8280;BME280;8335;42.646;23.380;2023-10-08T12:11:12;148016.78;;;26.13;29.40
8280;BME280;8335;42.646;23.380;2023-10-08T12:13:39;147891.03;;;25.62;29.84
8280;BME280;8335;42.646;23.380;2023-10-08T12:16:13;147903.63;;;25.67;30.49
8280;BME280;8335;42.646;23.380;2023-10-08T12:18:46;147937.59;;;25.81;30.45
8280;BME280;8335;42.646;23.380;2023-10-08T12:21:18;147947.63;;;25.85;30.32
8280;BME280;8335;42.646;23.380;2023-10-08T12:23:47;147930.03;;;25.77;30.49
8280;BME280;8335;42.646;23.380;2023-10-08T12:26:15;148009.25;;;26.10;30.13
8280;BME280;8335;42.646;23.380;2023-10-08T12:28:44;147994.16;;;26.03;29.49
8280;BME280;8335;42.646;23.380;2023-10-08T12:31:13;147986.66;;;26.00;29.87
8280;BME280;8335;42.646;23.380;2023-10-08T12:33:41;148016.78;;;26.13;29.66
8280;BME280;8335;42.646;23.380;2023-10-08T12:36:09;148010.53;;;26.10;30.21
8280;BME280;8335;42.646;23.380;2023-10-08T12:38:40;147989.16;;;26.01;30.39
8280;BME280;8335;42.646;23.380;2023-10-08T12:41:09;147982.84;;;25.99;30.11
8280;BME280;8335;42.646;23.380;2023-10-08T12:43:39;147942.63;;;25.83;30.39
8280;BME280;8335;42.646;23.380;2023-10-08T12:46:08;147903.63;;;25.67;30.61
8280;BME280;8335;42.646;23.380;2023-10-08T12:48:41;147917.50;;;25.72;30.96
8280;BME280;8335;42.646;23.380;2023-10-08T12:51:09;147914.91;;;25.71;30.93
8280;BME280;8335;42.646;23.380;2023-10-08T12:53:36;147914.91;;;25.71;30.63
8280;BME280;8335;42.646;23.380;2023-10-08T12:56:04;147882.25;;;25.58;30.88
8280;BME280;8335;42.646;23.380;2023-10-08T12:58:34;147875.94;;;25.56;31.01
8280;BME280;8335;42.646;23.380;2023-10-08T13:01:07;147809.31;;;25.29;31.38
8280;BME280;8335;42.646;23.380;2023-10-08T13:03:35;147830.72;;;25.37;30.93
8280;BME280;8335;42.646;23.380;2023-10-08T13:06:07;147780.44;;;25.17;31.82
8280;BME280;8335;42.646;23.380;2023-10-08T13:08:37;147725.13;;;24.94;31.95
8280;BME280;8335;42.646;23.380;2023-10-08T13:11:04;147721.31;;;24.93;32.35
8280;BME280;8335;42.646;23.380;2023-10-08T13:13:32;147716.31;;;24.91;32.17
8280;BME280;8335;42.646;23.380;2023-10-08T13:16:02;147743.97;;;25.02;32.29
8280;BME280;8335;42.646;23.380;2023-10-08T13:18:33;147777.94;;;25.16;32.14
8280;BME280;8335;42.646;23.380;2023-10-08T13:21:03;147782.97;;;25.18;31.92
8280;BME280;8335;42.646;23.380;2023-10-08T13:23:29;147804.31;;;25.27;31.58
8280;BME280;8335;42.646;23.380;2023-10-08T13:25:58;147799.28;;;25.24;31.49
8280;BME280;8335;42.646;23.380;2023-10-08T13:28:29;147794.28;;;25.22;31.74
8280;BME280;8335;42.646;23.380;2023-10-08T13:31:00;147786.72;;;25.19;31.68
8280;BME280;8335;42.646;23.380;2023-10-08T13:33:35;147787.97;;;25.20;31.57
8280;BME280;8335;42.646;23.380;2023-10-08T13:36:04;147760.34;;;25.09;32.14
8280;BME280;8335;42.646;23.380;2023-10-08T13:38:33;147761.59;;;25.09;32.09
8280;BME280;8335;42.646;23.380;2023-10-08T13:41:00;147749.03;;;25.04;31.81
8280;BME280;8335;42.646;23.380;2023-10-08T13:43:32;147615.78;;;24.50;31.93
8280;BME280;8335;42.646;23.380;2023-10-08T13:46:05;147708.78;;;24.88;32.01
8280;BME280;8335;42.646;23.380;2023-10-08T13:48:39;147532.91;;;24.16;32.49
8280;BME280;8335;42.646;23.380;2023-10-08T13:51:07;147628.38;;;24.55;32.39
8280;BME280;8335;42.646;23.380;2023-10-08T13:53:39;147624.59;;;24.54;32.43
8280;BME280;8335;42.646;23.380;2023-10-08T13:56:06;147623.34;;;24.53;32.78
8280;BME280;8335;42.646;23.380;2023-10-08T13:58:37;147612.03;;;24.49;32.60
8280;BME280;8335;42.646;23.380;2023-10-08T14:01:08;147615.78;;;24.50;32.53
8280;BME280;8335;42.646;23.380;2023-10-08T14:03:44;147625.88;;;24.54;32.69
8280;BME280;8335;42.646;23.380;2023-10-08T14:06:12;147571.81;;;24.32;33.17
8280;BME280;8335;42.646;23.380;2023-10-08T14:08:39;147556.75;;;24.26;32.99
8280;BME280;8335;42.646;23.380;2023-10-08T14:11:09;147557.97;;;24.27;33.08
8280;BME280;8335;42.646;23.380;2023-10-08T14:13:38;147550.47;;;24.24;33.26
8280;BME280;8335;42.646;23.380;2023-10-08T14:16:09;147559.25;;;24.27;33.46
8280;BME280;8335;42.646;23.380;2023-10-08T14:18:37;147560.50;;;24.28;33.29
8280;BME280;8335;42.646;23.380;2023-10-08T14:21:06;147555.47;;;24.26;33.46
8280;BME280;8335;42.646;23.380;2023-10-08T14:23:35;147556.75;;;24.26;33.32
8280;BME280;8335;42.646;23.380;2023-10-08T14:26:05;147532.91;;;24.16;33.17
8280;BME280;8335;42.646;23.380;2023-10-08T14:28:32;147468.84;;;23.91;33.39
8280;BME280;8335;42.646;23.380;2023-10-08T14:31:17;147485.16;;;23.97;33.43
8280;BME280;8335;42.646;23.380;2023-10-08T14:33:48;147472.59;;;23.92;33.63